Time;durP1;ratioP1;P1;durP2;ratioP2;P2;SDS_P1;SDS_P2;PMS_P1;PMS_P2;Temp;Humidity;BMP_temperature;BMP_pressure;BME280_temperature;BME280_humidity;BME280_pressure;Samples;Min_cycle;Max_cycle;Signal;HPM_P1;HPM_P2
2022/10/04 00:02:33;;;;;;;8.80;4.88;;;12.50;99.90;;;;;;4898350;29;20056;-71
2022/10/04 00:05:12;;;;;;;9.48;5.07;;;12.50;99.90;;;;;;4898343;29;20057;-71
2022/10/04 00:07:46;;;;;;;12.48;5.70;;;12.40;99.90;;;;;;4897642;29;20048;-71
2022/10/04 00:10:20;;;;;;;7.60;4.60;;;12.60;99.90;;;;;;4898758;29;20080;-71
2022/10/04 00:13:14;;;;;;;7.50;4.13;;;12.50;99.90;;;;;;4897265;29;20482;-70
2022/10/04 00:15:40;;;;;;;6.50;3.97;;;12.40;99.90;;;;;;4898294;29;20095;-71
2022/10/04 00:18:22;;;;;;;9.05;3.95;;;12.50;99.90;;;;;;4898883;29;20052;-71
2022/10/04 00:20:49;;;;;;;9.02;3.70;;;12.50;99.90;;;;;;4901789;29;20075;-71
2022/10/04 00:23:24;;;;;;;8.80;4.10;;;12.40;99.90;;;;;;4901786;29;20056;-71
2022/10/04 00:25:58;;;;;;;8.90;4.20;;;12.40;99.90;;;;;;4916296;29;20051;-71
2022/10/04 00:28:24;;;;;;;9.30;5.05;;;12.60;99.90;;;;;;4901591;29;20140;-70
2022/10/04 00:31:14;;;;;;;10.43;4.68;;;12.40;99.90;;;;;;4901803;29;20467;-70
2022/10/04 00:34:08;;;;;;;7.13;3.80;;;12.50;99.90;;;;;;4901617;29;20049;-71
2022/10/04 00:36:44;;;;;;;7.88;4.35;;;12.50;99.90;;;;;;4865945;29;20061;-71
2022/10/04 00:39:10;;;;;;;7.93;4.30;;;12.40;99.90;;;;;;4901610;29;20049;-71
2022/10/04 00:41:48;;;;;;;8.10;4.25;;;12.40;99.90;;;;;;4901448;29;20045;-71
2022/10/04 00:44:28;;;;;;;10.43;4.60;;;12.50;99.90;;;;;;4901387;29;20044;-71
2022/10/04 00:46:56;;;;;;;7.22;4.18;;;12.40;99.90;;;;;;4901452;29;20045;-71
2022/10/04 00:49:25;;;;;;;7.20;3.58;;;12.30;99.90;;;;;;4900143;29;20085;-71
2022/10/04 00:51:54;;;;;;;10.65;4.60;;;12.40;99.90;;;;;;4900890;29;20068;-70
2022/10/04 00:54:29;;;;;;;8.98;4.60;;;12.40;99.90;;;;;;4901492;29;20056;-71
2022/10/04 00:57:07;;;;;;;10.05;4.70;;;12.30;99.90;;;;;;4900592;29;20048;-70
2022/10/04 00:59:40;;;;;;;8.68;4.20;;;12.40;99.90;;;;;;4901234;29;20044;-70
2022/10/04 01:02:14;;;;;;;8.93;4.47;;;12.30;99.90;;;;;;4900982;29;20055;-71
2022/10/04 01:04:52;;;;;;;9.68;5.30;;;12.40;99.90;;;;;;4915653;29;20135;-70
2022/10/04 01:07:27;;;;;;;7.28;4.28;;;12.40;99.90;;;;;;4901106;29;20064;-70
2022/10/04 01:10:01;;;;;;;10.05;5.20;;;12.40;99.90;;;;;;4899737;29;20044;-71
2022/10/04 01:12:49;;;;;;;11.98;4.97;;;12.40;99.90;;;;;;4900813;29;20107;-70
2022/10/04 01:15:21;;;;;;;11.02;4.88;;;12.20;99.90;;;;;;4899903;29;20176;-71
2022/10/04 01:18:11;;;;;;;9.10;4.97;;;12.50;99.90;;;;;;4901031;29;20136;-71
2022/10/04 01:20:59;;;;;;;8.60;5.30;;;12.50;99.90;;;;;;4900658;29;20048;-71
2022/10/04 01:23:49;;;;;;;13.93;5.00;;;12.40;99.90;;;;;;4900849;29;20176;-71
2022/10/04 01:26:33;;;;;;;11.23;5.60;;;12.50;99.90;;;;;;4900708;29;20084;-71
2022/10/04 01:29:17;;;;;;;10.82;5.43;;;12.40;99.90;;;;;;4900634;29;20048;-71
2022/10/04 01:31:47;;;;;;;9.00;5.38;;;12.40;99.90;;;;;;4899806;29;20045;-71
2022/10/04 01:34:16;;;;;;;8.07;5.35;;;12.40;99.90;;;;;;4900538;29;20132;-71
2022/10/04 01:36:44;;;;;;;13.02;5.85;;;12.40;99.90;;;;;;4899573;29;20084;-71
2022/10/04 01:39:12;;;;;;;8.95;5.70;;;12.40;99.90;;;;;;4900464;29;20106;-71
2022/10/04 01:41:55;;;;;;;12.15;5.60;;;12.40;99.90;;;;;;4900451;29;20059;-71
2022/10/04 01:44:34;;;;;;;9.90;5.75;;;12.50;99.90;;;;;;4899565;29;20048;-71
2022/10/04 01:47:07;;;;;;;10.15;5.57;;;12.50;99.90;;;;;;4900909;29;20100;-71
2022/10/04 01:49:35;;;;;;;10.70;5.40;;;12.40;99.90;;;;;;4900767;29;20044;-71
2022/10/04 01:52:09;;;;;;;11.93;6.63;;;12.40;99.90;;;;;;4899952;29;20058;-71
2022/10/04 01:54:46;;;;;;;11.88;6.38;;;12.40;99.90;;;;;;4900185;29;20540;-71
2022/10/04 01:57:17;;;;;;;9.52;5.30;;;12.50;99.90;;;;;;4899105;29;20081;-71
2022/10/04 02:00:00;;;;;;;11.82;5.57;;;12.40;99.90;;;;;;4900081;29;20053;-71
2022/10/04 02:02:33;;;;;;;;;;;12.40;99.90;;;;;;4900442;29;20040;-71
2022/10/04 02:05:02;;;;;;;10.68;6.25;;;12.30;99.90;;;;;;4899992;29;20014;-70
2022/10/04 02:07:31;;;;;;;10.27;6.30;;;12.40;99.90;;;;;;4898747;29;20129;-71
2022/10/04 02:10:00;;;;;;;11.13;6.30;;;12.50;99.90;;;;;;4883129;29;20124;-71
2022/10/04 02:12:30;;;;;;;11.00;6.07;;;12.40;99.90;;;;;;4899777;29;20116;-71
2022/10/04 02:15:00;;;;;;;8.70;6.13;;;12.40;99.90;;;;;;4900288;29;20053;-70
2022/10/04 02:17:32;;;;;;;9.32;6.10;;;12.60;99.90;;;;;;4900356;29;20059;-70
2022/10/04 02:20:00;;;;;;;10.52;6.15;;;12.40;99.90;;;;;;4899674;29;20091;-70
2022/10/04 02:22:27;;;;;;;11.10;6.30;;;12.40;99.90;;;;;;4900005;29;20390;-71
2022/10/04 02:24:55;;;;;;;12.00;6.70;;;12.50;99.90;;;;;;4899797;29;20409;-71
2022/10/04 02:27:28;;;;;;;10.00;6.70;;;12.50;99.90;;;;;;4899700;29;20052;-71
2022/10/04 02:30:04;;;;;;;11.27;6.20;;;12.70;99.90;;;;;;4899960;29;20044;-71
2022/10/04 02:35:17;;;;;;;12.50;6.57;;;12.70;99.90;;;;;;4899631;29;20063;-71
2022/10/04 02:37:43;;;;;;;12.60;7.22;;;12.40;99.90;;;;;;4898617;29;20363;-70
2022/10/04 02:40:15;;;;;;;10.85;6.55;;;12.40;99.90;;;;;;4899236;29;20163;-70
2022/10/04 02:42:53;;;;;;;11.70;7.07;;;12.30;99.90;;;;;;4899148;29;20048;-70
2022/10/04 02:45:41;;;;;;;12.93;6.90;;;12.50;99.90;;;;;;4899167;29;20052;-70
2022/10/04 02:48:44;;;;;;;11.27;6.68;;;12.50;99.90;;;;;;4899365;29;20126;-71
2022/10/04 02:51:26;;;;;;;10.57;6.75;;;12.40;99.90;;;;;;4869526;29;20060;-70
2022/10/04 02:54:00;;;;;;;13.02;6.70;;;12.60;99.90;;;;;;4899868;29;20135;-71
2022/10/04 02:56:26;;;;;;;10.27;6.53;;;12.50;99.90;;;;;;4898968;29;20051;-71
2022/10/04 02:58:53;;;;;;;10.38;6.50;;;12.60;99.90;;;;;;4898912;29;20139;-71
2022/10/04 03:01:34;;;;;;;12.68;6.80;;;12.40;99.90;;;;;;4897715;29;20497;-70
2022/10/04 03:04:01;;;;;;;14.35;7.22;;;12.40;99.90;;;;;;4898646;29;20057;-71
2022/10/04 03:06:31;;;;;;;10.52;6.57;;;12.50;99.90;;;;;;4898414;29;20431;-71
2022/10/04 03:09:03;;;;;;;12.75;6.93;;;12.50;99.90;;;;;;4898692;29;20052;-71
2022/10/04 03:11:34;;;;;;;12.48;7.22;;;12.60;99.90;;;;;;4898658;29;20051;-70
2022/10/04 03:14:01;;;;;;;10.88;6.90;;;12.40;99.90;;;;;;4882250;29;20470;-71
2022/10/04 03:16:36;;;;;;;11.55;7.22;;;12.40;99.90;;;;;;4899168;29;20063;-71
2022/10/04 03:19:03;;;;;;;13.77;7.45;;;12.40;99.90;;;;;;4899119;29;20052;-71
2022/10/04 03:21:31;;;;;;;11.48;6.32;;;12.50;99.90;;;;;;4899043;29;20060;-70
2022/10/04 03:23:59;;;;;;;12.20;7.20;;;12.30;99.90;;;;;;4899062;29;20415;-70
2022/10/04 03:26:37;;;;;;;9.88;6.57;;;12.50;99.90;;;;;;4899072;29;20055;-71
2022/10/04 03:29:09;;;;;;;14.23;7.28;;;12.30;99.90;;;;;;4899069;29;20116;-71
2022/10/04 03:31:47;;;;;;;11.75;7.13;;;12.20;99.90;;;;;;4898490;29;20098;-70
2022/10/04 03:34:22;;;;;;;9.18;6.63;;;12.20;99.90;;;;;;4897692;29;20073;-71
2022/10/04 03:36:49;;;;;;;14.00;7.32;;;12.40;99.90;;;;;;4898430;29;20053;-71
2022/10/04 03:39:39;;;;;;;12.45;7.70;;;12.10;99.90;;;;;;4898383;29;20049;-70
2022/10/04 03:42:19;;;;;;;14.50;7.68;;;12.20;99.90;;;;;;4897671;29;20053;-71
2022/10/04 03:44:47;;;;;;;8.77;7.00;;;12.20;99.90;;;;;;4897702;29;20119;-71
2022/10/04 03:47:18;;;;;;;12.00;7.45;;;12.20;99.90;;;;;;4898385;29;20053;-70
2022/10/04 03:49:46;;;;;;;13.45;7.05;;;12.20;99.90;;;;;;4898295;29;20048;-70
2022/10/04 03:52:21;;;;;;;9.00;7.07;;;12.50;99.90;;;;;;4898006;29;20056;-71
2022/10/04 03:54:50;;;;;;;11.88;8.10;;;12.20;99.90;;;;;;4900811;29;20441;-70
2022/10/04 03:57:16;;;;;;;11.63;7.10;;;12.10;99.90;;;;;;4902150;29;20052;-70
2022/10/04 03:59:42;;;;;;;13.02;7.72;;;12.10;99.90;;;;;;4902201;29;20056;-71
2022/10/04 04:02:29;;;;;;;13.45;7.38;;;12.20;99.90;;;;;;4902326;29;20099;-71
2022/10/04 04:05:08;;;;;;;12.10;7.47;;;12.20;99.90;;;;;;4902594;29;20089;-72
2022/10/04 04:07:59;;;;;;;13.00;8.00;;;12.00;99.90;;;;;;4902111;29;20055;-72
2022/10/04 04:10:31;;;;;;;11.32;7.28;;;12.30;99.90;;;;;;4901989;29;20044;-71
2022/10/04 04:13:14;;;;;;;13.73;8.07;;;12.20;99.90;;;;;;4901919;29;20049;-71
2022/10/04 04:15:42;;;;;;;13.20;7.07;;;12.10;99.90;;;;;;4901886;29;20437;-71
2022/10/04 04:18:17;;;;;;;13.85;7.65;;;12.10;99.90;;;;;;4916400;29;20092;-70
2022/10/04 04:20:44;;;;;;;13.90;7.63;;;12.00;99.90;;;;;;4901810;29;20076;-71
2022/10/04 04:23:12;;;;;;;14.20;7.45;;;12.10;99.90;;;;;;4900735;29;20056;-71
2022/10/04 04:25:42;;;;;;;10.85;6.82;;;12.10;99.90;;;;;;4900732;29;20052;-71
2022/10/04 04:28:40;;;;;;;13.50;7.22;;;12.30;99.90;;;;;;4901614;29;20064;-71
2022/10/04 04:31:20;;;;;;;13.45;7.43;;;12.00;99.90;;;;;;4901159;29;20064;-71
2022/10/04 04:34:00;;;;;;;10.90;6.60;;;12.00;99.90;;;;;;4902406;29;20429;-71
2022/10/04 04:36:32;;;;;;;10.77;7.43;;;12.00;99.90;;;;;;4901156;29;20490;-71
2022/10/04 04:39:38;;;;;;;10.63;7.03;;;12.10;99.90;;;;;;4900745;29;20061;-71
2022/10/04 04:42:23;;;;;;;10.63;7.38;;;12.00;99.90;;;;;;4891284;29;20482;-71
2022/10/04 04:44:53;;;;;;;9.63;7.32;;;12.10;99.90;;;;;;4902243;29;20070;-71
2022/10/04 04:47:27;;;;;;;11.73;7.63;;;12.10;99.90;;;;;;4901821;29;20441;-70
2022/10/04 04:49:55;;;;;;;12.77;7.60;;;12.10;99.90;;;;;;4900649;29;20045;-71
2022/10/04 04:52:25;;;;;;;11.27;7.10;;;12.00;99.90;;;;;;4901813;29;20068;-71
2022/10/04 04:54:53;;;;;;;10.60;7.07;;;12.00;99.90;;;;;;4901760;29;20401;-71
2022/10/04 04:57:20;;;;;;;12.73;7.40;;;11.90;99.90;;;;;;4901116;29;20052;-71
2022/10/04 04:59:49;;;;;;;10.40;7.13;;;11.90;99.90;;;;;;4901596;29;20101;-71
2022/10/04 05:02:33;;;;;;;11.07;7.50;;;12.00;99.90;;;;;;4899885;29;20486;-71
2022/10/04 05:05:22;;;;;;;13.15;7.43;;;12.00;99.90;;;;;;4884556;29;20056;-71
2022/10/04 05:08:01;;;;;;;12.07;7.15;;;11.90;99.90;;;;;;4899994;29;20056;-71
2022/10/04 05:10:33;;;;;;;11.65;7.78;;;12.20;99.90;;;;;;4900896;29;20113;-71
2022/10/04 05:13:01;;;;;;;10.15;7.88;;;11.90;99.90;;;;;;4900897;29;20055;-71
2022/10/04 05:15:39;;;;;;;11.93;9.23;;;11.90;99.90;;;;;;4901426;29;20057;-71
2022/10/04 05:18:32;;;;;;;12.73;8.30;;;12.00;99.90;;;;;;4901467;29;20056;-71
2022/10/04 05:21:10;;;;;;;14.82;8.23;;;11.90;99.90;;;;;;4900998;29;20087;-71
2022/10/04 05:23:36;;;;;;;13.05;8.15;;;11.90;99.90;;;;;;4901273;29;20056;-71
2022/10/04 05:26:03;;;;;;;10.52;8.43;;;11.80;99.90;;;;;;4900692;29;20049;-71
2022/10/04 05:28:29;;;;;;;13.10;8.15;;;11.70;99.90;;;;;;4900580;29;20379;-71
2022/10/04 05:31:27;;;;;;;15.02;9.00;;;11.80;99.90;;;;;;4900722;29;20474;-71
2022/10/04 05:33:57;;;;;;;16.08;9.15;;;11.70;99.90;;;;;;4898966;29;20088;-71
2022/10/04 05:36:29;;;;;;;15.18;9.25;;;11.80;99.90;;;;;;4899450;29;20044;-71
2022/10/04 05:39:09;;;;;;;16.50;8.75;;;11.70;99.90;;;;;;4900370;29;20045;-71
2022/10/04 05:41:51;;;;;;;15.65;9.45;;;11.70;99.90;;;;;;4901001;29;20116;-71
2022/10/04 05:44:27;;;;;;;14.10;9.05;;;11.70;99.90;;;;;;4901201;29;20103;-70
2022/10/04 05:47:05;;;;;;;13.57;9.32;;;11.80;99.90;;;;;;4900238;29;20055;-71
2022/10/04 05:49:42;;;;;;;11.70;8.65;;;11.60;99.90;;;;;;4900454;29;20121;-71
2022/10/04 05:52:32;;;;;;;12.77;9.07;;;11.50;99.90;;;;;;4898502;29;20057;-71
2022/10/04 05:55:25;;;;;;;13.50;9.25;;;11.70;99.90;;;;;;4901253;29;20170;-71
2022/10/04 05:58:06;;;;;;;;;;;11.50;99.90;;;;;;4900496;29;20059;-70
2022/10/04 06:00:59;;;;;;;13.60;8.75;;;11.50;99.90;;;;;;4900010;29;19931;-70
2022/10/04 06:03:31;;;;;;;;;;;11.50;99.90;;;;;;4900244;29;20056;-71
2022/10/04 06:06:40;;;;;;;13.18;9.07;;;11.50;99.90;;;;;;4900766;29;20296;-71
2022/10/04 06:09:30;;;;;;;12.13;9.48;;;11.50;99.90;;;;;;4899315;29;20192;-71
2022/10/04 06:12:19;;;;;;;13.43;9.75;;;11.40;99.90;;;;;;4900136;29;20048;-71
2022/10/04 06:15:07;;;;;;;15.55;9.90;;;11.40;99.90;;;;;;4899859;29;20061;-71
2022/10/04 06:17:50;;;;;;;11.30;9.63;;;11.50;99.90;;;;;;4887235;29;20379;-70
2022/10/04 06:20:50;;;;;;;15.15;9.30;;;11.40;99.90;;;;;;4914253;29;20374;-70
2022/10/04 06:23:18;;;;;;;15.50;9.85;;;11.40;99.90;;;;;;4899441;29;20048;-71
2022/10/04 06:25:57;;;;;;;14.32;9.73;;;11.40;99.90;;;;;;4900323;29;20136;-71
2022/10/04 06:28:26;;;;;;;14.65;9.50;;;11.40;99.90;;;;;;4899350;29;20052;-71
2022/10/04 06:31:01;;;;;;;13.13;9.65;;;11.50;99.90;;;;;;4898197;29;20058;-71
2022/10/04 06:33:45;;;;;;;13.02;10.07;;;11.60;99.90;;;;;;4899948;29;20056;-71
2022/10/04 06:36:14;;;;;;;13.32;9.73;;;11.50;99.90;;;;;;4899586;29;20521;-71
2022/10/04 06:39:02;;;;;;;12.52;10.18;;;11.60;99.90;;;;;;4899278;29;20060;-72
2022/10/04 06:41:47;;;;;;;14.75;9.75;;;11.40;99.90;;;;;;4899462;29;20421;-71
2022/10/04 06:44:43;;;;;;;14.63;9.38;;;11.60;99.90;;;;;;4898587;29;20052;-71
2022/10/04 06:47:23;;;;;;;17.38;10.32;;;11.40;99.90;;;;;;4898467;29;20490;-71
2022/10/04 06:50:21;;;;;;;15.45;10.38;;;11.40;99.90;;;;;;4899049;29;20493;-71
2022/10/04 06:52:53;;;;;;;16.73;10.93;;;11.50;99.90;;;;;;4863332;29;20064;-71
2022/10/04 06:56:01;;;;;;;14.48;9.88;;;11.50;99.90;;;;;;4899883;29;20500;-71
2022/10/04 06:59:23;;;;;;;15.20;10.65;;;11.50;99.90;;;;;;4899047;29;20108;-71
2022/10/04 07:01:55;;;;;;;15.93;10.70;;;11.60;99.90;;;;;;4804540;29;20051;-71
2022/10/04 07:04:35;;;;;;;17.27;11.07;;;11.50;99.90;;;;;;4804878;29;20134;-71
2022/10/04 07:07:36;;;;;;;13.02;9.68;;;11.50;99.90;;;;;;4867116;29;20577;-71
2022/10/04 07:10:17;;;;;;;13.10;10.30;;;11.60;99.90;;;;;;4899499;29;20131;-71
2022/10/04 07:12:52;;;;;;;13.13;10.10;;;11.70;99.90;;;;;;4897541;29;20060;-71
2022/10/04 07:15:25;;;;;;;15.13;10.52;;;11.80;99.90;;;;;;4899544;29;20382;-71
2022/10/04 07:17:54;;;;;;;14.55;9.70;;;11.70;99.90;;;;;;4898711;29;20122;-70
2022/10/04 07:20:32;;;;;;;14.18;10.68;;;12.00;99.90;;;;;;4898585;29;20086;-71
2022/10/04 07:23:15;;;;;;;17.30;10.55;;;11.90;99.90;;;;;;4898520;29;20055;-70
2022/10/04 07:25:49;;;;;;;13.63;10.02;;;11.80;99.90;;;;;;4898682;29;20060;-70
2022/10/04 07:31:33;;;;;;;16.70;10.25;;;12.10;99.90;;;;;;4898434;29;20048;-70
2022/10/04 07:34:10;;;;;;;13.05;10.13;;;12.10;99.90;;;;;;4899021;29;20053;-70
2022/10/04 07:36:59;;;;;;;15.80;10.05;;;12.30;99.90;;;;;;4882498;29;20041;-70
2022/10/04 07:39:33;;;;;;;14.95;9.75;;;12.20;99.90;;;;;;4882582;29;20429;-70
2022/10/04 07:42:19;;;;;;;15.05;10.50;;;12.20;99.90;;;;;;4897769;29;20060;-71
2022/10/04 07:45:07;;;;;;;16.20;9.73;;;12.30;99.90;;;;;;4898471;29;20059;-71
2022/10/04 07:47:33;;;;;;;13.70;9.63;;;12.30;99.90;;;;;;4898522;29;20057;-71
2022/10/04 07:49:59;;;;;;;13.25;10.50;;;12.60;99.90;;;;;;4898356;29;20117;-71
2022/10/04 07:52:33;;;;;;;12.63;8.80;;;12.40;99.90;;;;;;4897178;29;20095;-70
2022/10/04 07:55:18;;;;;;;14.68;9.52;;;12.60;99.90;;;;;;4897777;29;20056;-71
2022/10/04 07:58:00;;;;;;;15.25;9.75;;;12.50;99.90;;;;;;4898380;29;20088;-70
2022/10/04 08:01:03;;;;;;;13.25;9.05;;;12.50;99.90;;;;;;4898688;29;20124;-71
2022/10/04 08:03:50;;;;;;;11.60;8.75;;;12.50;99.90;;;;;;4875309;29;20129;-71
2022/10/04 08:06:32;;;;;;;13.02;8.93;;;12.60;99.90;;;;;;4898994;29;20056;-71
2022/10/04 08:09:30;;;;;;;12.60;8.70;;;12.60;99.90;;;;;;4898375;29;20056;-71
2022/10/04 08:12:04;;;;;;;11.98;8.15;;;12.80;99.90;;;;;;4898175;29;20056;-71
2022/10/04 08:15:07;;;;;;;9.77;8.68;;;13.10;99.90;;;;;;4897516;29;20055;-70
2022/10/04 08:17:58;;;;;;;14.48;8.18;;;13.10;99.90;;;;;;4898524;29;20059;-70
2022/10/04 08:20:34;;;;;;;11.98;8.70;;;13.00;99.90;;;;;;4898488;29;20385;-71
2022/10/04 08:23:18;;;;;;;11.60;7.75;;;13.00;99.90;;;;;;4898049;29;20056;-71
2022/10/04 08:25:56;;;;;;;13.10;8.13;;;13.20;99.90;;;;;;4898424;29;20497;-72
2022/10/04 08:31:25;;;;;;;12.38;7.53;;;13.30;99.90;;;;;;4898617;29;20135;-73
2022/10/04 08:34:24;;;;;;;11.52;7.95;;;13.60;99.90;;;;;;4897697;29;20501;-72
2022/10/04 08:37:28;;;;;;;12.40;8.20;;;13.50;99.90;;;;;;4880524;29;20095;-71
2022/10/04 08:40:22;;;;;;;13.40;8.60;;;13.40;99.90;;;;;;4899608;29;20394;-71
2022/10/04 08:43:07;;;;;;;12.60;8.27;;;13.50;99.90;;;;;;4901765;29;20486;-71
2022/10/04 08:46:02;;;;;;;13.32;9.00;;;13.40;99.90;;;;;;4902061;29;20056;-73
2022/10/04 08:49:13;;;;;;;13.95;8.65;;;13.40;99.90;;;;;;4901363;29;20079;-71
2022/10/04 08:51:57;;;;;;;15.23;8.65;;;13.50;99.90;;;;;;4895440;29;20205;-70
2022/10/04 08:54:45;;;;;;;12.18;8.98;;;13.40;99.90;;;;;;4900610;29;20052;-71
2022/10/04 08:57:14;;;;;;;11.00;8.40;;;13.20;99.90;;;;;;4901712;29;20112;-70
2022/10/04 09:00:07;;;;;;;14.95;8.02;;;13.40;99.90;;;;;;4901158;29;20084;-70
2022/10/04 09:02:43;;;;;;;12.70;8.60;;;13.40;99.90;;;;;;4901400;29;20048;-70
2022/10/04 09:05:24;;;;;;;11.98;8.65;;;13.20;99.90;;;;;;4901032;29;20052;-71
2022/10/04 09:08:19;;;;;;;12.05;7.85;;;13.10;99.90;;;;;;4901396;29;20057;-70
2022/10/04 09:11:06;;;;;;;13.55;7.45;;;13.40;99.90;;;;;;4900976;29;20051;-71
2022/10/04 09:13:54;;;;;;;10.95;7.53;;;13.50;99.90;;;;;;4900952;29;20055;-70
2022/10/04 09:16:26;;;;;;;12.60;7.88;;;13.50;99.90;;;;;;4900730;29;20056;-71
2022/10/04 09:19:21;;;;;;;13.48;7.40;;;13.50;99.90;;;;;;4901306;29;20052;-70
2022/10/04 09:21:55;;;;;;;14.50;7.05;;;13.80;99.90;;;;;;4899749;29;20048;-70
2022/10/04 09:24:47;;;;;;;9.65;6.45;;;13.80;99.90;;;;;;4900841;29;20071;-70
2022/10/04 09:27:33;;;;;;;10.80;6.10;;;13.80;99.90;;;;;;4890627;29;20064;-71
2022/10/04 09:30:10;;;;;;;7.80;5.15;;;13.90;99.90;;;;;;4900126;29;20052;-70
2022/10/04 09:32:39;;;;;;;10.25;5.75;;;13.90;99.90;;;;;;4900795;29;20053;-71
2022/10/04 09:35:30;;;;;;;9.55;5.05;;;13.90;99.90;;;;;;4900599;29;20412;-71
2022/10/04 09:38:39;;;;;;;8.75;5.00;;;14.00;99.90;;;;;;4900352;29;20474;-68
2022/10/04 09:41:29;;;;;;;8.93;5.13;;;14.00;99.90;;;;;;4899264;29;20049;-70
2022/10/04 09:44:33;;;;;;;9.35;5.00;;;14.10;99.90;;;;;;4900496;29;20068;-71
2022/10/04 09:47:20;;;;;;;8.13;4.63;;;14.20;99.90;;;;;;4899687;29;20127;-72
2022/10/04 09:50:23;;;;;;;9.98;4.70;;;14.30;99.90;;;;;;4900179;29;20044;-70
2022/10/04 09:53:33;;;;;;;8.97;4.53;;;14.40;99.90;;;;;;4913964;29;20057;-70
2022/10/04 09:56:51;;;;;;;8.48;6.20;;;14.30;99.90;;;;;;4833070;29;20382;-69
2022/10/04 09:59:35;;;;;;;9.60;4.97;;;14.40;99.90;;;;;;4838064;29;20087;-70
2022/10/04 10:02:13;;;;;;;8.90;4.35;;;14.40;99.90;;;;;;4900783;29;20374;-70
2022/10/04 10:05:10;;;;;;;8.00;4.50;;;14.40;99.90;;;;;;4900053;29;20503;-70
2022/10/04 10:08:07;;;;;;;6.30;4.18;;;14.30;99.90;;;;;;4899309;29;20132;-70
2022/10/04 10:13:54;;;;;;;7.70;4.90;;;14.80;99.90;;;;;;4900577;29;20048;-70
2022/10/04 10:16:41;;;;;;;7.40;4.60;;;14.60;99.90;;;;;;4899142;29;20125;-70
2022/10/04 10:19:38;;;;;;;8.05;4.55;;;14.60;99.90;;;;;;4899655;29;20113;-70
2022/10/04 10:22:12;;;;;;;7.90;4.65;;;14.90;99.90;;;;;;4898878;29;20056;-70
2022/10/04 10:25:15;;;;;;;8.93;4.22;;;14.70;99.90;;;;;;4900209;29;20056;-69
2022/10/04 10:28:10;;;;;;;7.22;4.85;;;14.80;99.90;;;;;;4898598;29;20048;-69
2022/10/04 10:30:54;;;;;;;9.07;4.90;;;15.00;99.90;;;;;;4899166;29;20477;-69
2022/10/04 10:33:31;;;;;;;5.80;3.88;;;14.90;99.90;;;;;;4899228;29;20060;-69
2022/10/04 10:36:33;;;;;;;6.07;4.03;;;14.90;99.90;;;;;;4900231;29;20052;-70
2022/10/04 10:39:19;;;;;;;5.38;3.33;;;14.90;99.90;;;;;;4898307;29;20055;-69
2022/10/04 10:42:13;;;;;;;7.63;3.42;;;15.00;99.90;;;;;;4899426;29;20394;-70
2022/10/04 10:44:55;;;;;;;6.20;2.70;;;15.00;99.90;;;;;;4900055;29;20044;-69
2022/10/04 10:47:52;;;;;;;6.40;3.15;;;15.10;99.90;;;;;;4898909;29;20540;-69
2022/10/04 10:50:27;;;;;;;7.47;3.75;;;15.30;99.90;;;;;;4898088;29;20446;-69
2022/10/04 10:53:30;;;;;;;4.30;3.20;;;15.20;99.90;;;;;;4899290;29;20053;-69
2022/10/04 10:56:17;;;;;;;5.97;3.42;;;15.30;99.90;;;;;;4899146;29;20060;-69
2022/10/04 10:58:46;;;;;;;7.03;3.13;;;15.10;99.90;;;;;;4899866;29;20076;-69
2022/10/04 11:01:27;;;;;;;6.40;3.45;;;15.10;99.90;;;;;;4897978;29;20120;-69
2022/10/04 11:04:13;;;;;;;7.50;3.80;;;15.00;99.90;;;;;;4897858;29;20060;-69
2022/10/04 11:07:03;;;;;;;8.63;3.92;;;15.20;99.90;;;;;;4897793;29;20057;-68
2022/10/04 11:09:46;;;;;;;9.15;3.97;;;15.20;99.90;;;;;;4897712;29;20049;-69
2022/10/04 11:12:38;;;;;;;6.40;3.50;;;15.20;99.90;;;;;;4897584;29;20494;-69
2022/10/04 11:15:27;;;;;;;6.57;3.55;;;15.50;99.90;;;;;;4898684;29;20045;-68
2022/10/04 11:18:20;;;;;;;5.20;3.28;;;15.30;99.90;;;;;;4897799;29;20124;-69
2022/10/04 11:21:16;;;;;;;6.40;3.25;;;15.60;99.90;;;;;;4898757;29;20124;-69
2022/10/04 11:23:42;;;;;;;6.20;3.33;;;15.50;99.90;;;;;;4898737;29;20059;-70
2022/10/04 11:26:34;;;;;;;7.82;3.53;;;15.50;99.90;;;;;;4898434;29;20052;-69
2022/10/04 11:29:22;;;;;;;8.98;3.53;;;15.60;99.90;;;;;;4898939;29;20055;-69
2022/10/04 11:31:59;;;;;;;7.10;3.60;;;15.60;99.90;;;;;;4898146;29;20501;-69
2022/10/04 11:34:38;;;;;;;5.50;3.10;;;15.60;99.90;;;;;;4913046;29;20051;-76
2022/10/04 11:37:59;;;;;;;7.68;3.20;;;15.70;99.90;;;;;;4898933;29;20048;-77
2022/10/04 11:40:48;;;;;;;6.00;3.47;;;15.90;99.90;;;;;;4897121;29;20127;-85
2022/10/04 11:43:23;;;;;;;5.03;2.72;;;15.80;99.90;;;;;;4898779;29;20052;-79
2022/10/04 11:46:26;;;;;;;7.63;3.50;;;16.00;99.90;;;;;;4897753;29;20049;-83
2022/10/04 11:49:07;;;;;;;7.40;3.17;;;15.70;99.90;;;;;;4897299;29;20052;-78
2022/10/04 11:51:51;;;;;;;5.05;2.75;;;15.90;99.90;;;;;;4898773;29;20067;-76
2022/10/04 11:54:29;;;;;;;6.35;2.78;;;15.80;99.90;;;;;;4898037;29;20056;-77
2022/10/04 11:57:14;;;;;;;7.40;3.20;;;15.80;99.90;;;;;;4898328;29;20068;-77
2022/10/04 12:00:02;;;;;;;6.03;3.65;;;15.90;99.90;;;;;;4898401;29;20053;-77
2022/10/04 12:02:39;;;;;;;7.70;3.90;;;16.00;99.90;;;;;;4897058;29;20057;-77
2022/10/04 12:05:39;;;;;;;7.32;3.22;;;15.90;99.90;;;;;;4898031;29;20136;-76
2022/10/04 12:08:16;;;;;;;7.95;3.90;;;15.80;99.90;;;;;;4897248;29;20374;-77
2022/10/04 12:10:44;;;;;;;8.65;4.00;;;15.90;99.90;;;;;;4896919;29;20091;-77
2022/10/04 12:13:25;;;;;;;7.97;3.75;;;15.90;99.90;;;;;;4897163;29;20056;-81
2022/10/04 12:16:36;;;;;;;6.43;3.60;;;16.10;99.90;;;;;;4901731;29;20056;-76
2022/10/04 12:19:43;;;;;;;5.65;3.22;;;16.20;99.90;;;;;;4825617;29;20051;-77
2022/10/04 12:22:31;;;;;;;5.15;2.88;;;16.00;99.90;;;;;;4810882;29;20063;-77
2022/10/04 12:25:18;;;;;;;7.28;3.33;;;16.20;99.90;;;;;;4898022;29;20506;-75
2022/10/04 12:27:51;;;;;;;8.52;3.83;;;16.30;99.90;;;;;;4901365;29;20128;-75
2022/10/04 12:30:35;;;;;;;7.22;3.13;;;16.20;99.90;;;;;;4902218;29;20048;-75
2022/10/04 12:33:15;;;;;;;6.72;2.97;;;16.20;99.90;;;;;;4900714;29;20056;-75
2022/10/04 12:36:06;;;;;;;6.22;2.65;;;16.40;99.90;;;;;;4901288;29;20494;-75
2022/10/04 12:38:52;;;;;;;5.82;2.63;;;16.30;99.90;;;;;;4900181;29;20459;-75
2022/10/04 12:41:28;;;;;;;4.97;2.65;;;16.30;99.90;;;;;;4902339;29;20170;-75
2022/10/04 12:44:24;;;;;;;6.78;2.70;;;16.50;99.90;;;;;;4901545;29;20060;-75
2022/10/04 12:47:02;;;;;;;5.38;2.85;;;16.40;99.90;;;;;;4888069;29;20060;-75
2022/10/04 12:50:07;;;;;;;5.75;2.45;;;16.40;99.90;;;;;;4900195;29;20128;-75
2022/10/04 12:52:56;;;;;;;6.50;2.42;;;16.60;99.90;;;;;;4880168;29;20044;-75
2022/10/04 12:55:52;;;;;;;4.60;2.10;;;16.50;99.90;;;;;;4902033;29;20058;-75
2022/10/04 12:58:38;;;;;;;3.95;1.92;;;16.40;99.90;;;;;;4915931;29;20057;-75
2022/10/04 13:01:28;;;;;;;4.05;1.80;;;16.70;99.90;;;;;;4901214;29;20048;-75
2022/10/04 13:04:08;;;;;;;6.20;2.05;;;16.50;99.90;;;;;;4900955;29;20056;-75
2022/10/04 13:06:58;;;;;;;4.95;2.00;;;16.70;99.90;;;;;;4900818;29;20528;-74
2022/10/04 13:09:47;;;;;;;5.35;2.50;;;16.60;99.90;;;;;;4901022;29;20045;-76
2022/10/04 13:12:26;;;;;;;3.60;2.05;;;16.70;99.90;;;;;;4855001;29;20143;-74
2022/10/04 13:15:12;;;;;;;3.00;1.75;;;16.70;99.90;;;;;;4901782;29;20045;-74
2022/10/04 13:17:54;;;;;;;3.88;2.00;;;16.60;99.90;;;;;;4899978;29;20088;-74
2022/10/04 13:20:39;;;;;;;6.97;2.17;;;16.90;99.90;;;;;;4900917;29;20044;-75
2022/10/04 13:23:34;;;;;;;4.40;2.08;;;16.90;99.90;;;;;;4900719;29;20104;-74
2022/10/04 13:26:27;;;;;;;4.57;2.45;;;16.70;99.90;;;;;;4901260;29;20080;-74
2022/10/04 13:29:13;;;;;;;4.25;1.98;;;16.60;99.90;;;;;;4900438;29;20560;-74
2022/10/04 13:31:57;;;;;;;5.22;2.67;;;16.60;99.90;;;;;;4900652;29;20052;-75
2022/10/04 13:34:39;;;;;;;5.63;3.30;;;16.80;99.90;;;;;;4901440;29;20049;-75
2022/10/04 13:37:20;;;;;;;6.15;2.95;;;17.00;99.90;;;;;;4901380;29;20468;-74
2022/10/04 13:39:46;;;;;;;3.65;2.10;;;16.70;99.90;;;;;;4900809;29;20442;-75
2022/10/04 13:42:46;;;;;;;6.78;3.15;;;16.90;99.90;;;;;;4900139;29;20055;-75
2022/10/04 13:45:24;;;;;;;6.53;2.80;;;16.90;99.90;;;;;;4900595;29;20053;-75
2022/10/04 13:48:23;;;;;;;4.72;2.75;;;16.90;99.90;;;;;;4915536;29;20049;-75
2022/10/04 13:51:23;;;;;;;5.90;3.63;;;17.00;99.90;;;;;;4900210;29;20067;-75
2022/10/04 13:57:14;;;;;;;6.72;2.88;;;16.90;99.90;;;;;;4868758;29;20397;-75
2022/10/04 13:59:48;;;;;;;5.25;2.80;;;17.10;99.90;;;;;;4899993;29;20056;-75
2022/10/04 14:02:57;;;;;;;6.90;2.85;;;16.80;99.90;;;;;;4900119;29;20053;-75
2022/10/04 14:05:38;;;;;;;7.10;2.92;;;16.80;99.90;;;;;;4900360;29;20139;-75
2022/10/04 14:08:35;;;;;;;4.38;2.65;;;16.90;99.90;;;;;;4899250;29;20052;-76
2022/10/04 14:11:05;;;;;;;6.05;2.90;;;16.90;99.90;;;;;;4900457;29;20127;-75